createdAt,value
2023-05-20T00:00:15.772Z,17.95
2023-05-20T00:00:47.207Z,17.95
2023-05-20T00:01:18.644Z,17.93
2023-05-20T00:01:50.139Z,17.94
2023-05-20T00:02:21.702Z,17.94
2023-05-20T00:02:53.228Z,17.94
2023-05-20T00:03:24.965Z,17.95
2023-05-20T00:03:56.897Z,17.95
2023-05-20T00:04:28.423Z,17.94
2023-05-20T00:04:59.960Z,17.94
2023-05-20T00:05:31.426Z,17.93
2023-05-20T00:06:02.882Z,17.92
2023-05-20T00:06:34.323Z,17.92
2023-05-20T00:07:05.787Z,17.92
2023-05-20T00:07:37.260Z,17.92
2023-05-20T00:08:08.693Z,17.91
2023-05-20T00:08:40.142Z,17.91
2023-05-20T00:09:11.584Z,17.92
2023-05-20T00:09:43.119Z,17.92
2023-05-20T00:10:14.567Z,17.92
2023-05-20T00:10:46.009Z,17.92
2023-05-20T00:11:17.444Z,17.92
2023-05-20T00:11:48.885Z,17.92
2023-05-20T00:12:20.347Z,17.91
2023-05-20T00:12:51.846Z,17.90
2023-05-20T00:13:23.290Z,17.90
2023-05-20T00:13:54.751Z,17.90
2023-05-20T00:14:26.198Z,17.90
2023-05-20T00:14:57.708Z,17.89
2023-05-20T00:15:29.156Z,17.90
2023-05-20T00:16:00.616Z,17.90
2023-05-20T00:16:32.190Z,17.89
2023-05-20T00:17:03.669Z,17.90
2023-05-20T00:17:35.134Z,17.90
2023-05-20T00:18:06.668Z,17.88
2023-05-20T00:18:38.198Z,17.89
2023-05-20T00:19:09.801Z,17.89
2023-05-20T00:19:41.287Z,17.89
2023-05-20T00:20:12.768Z,17.89
2023-05-20T00:20:44.219Z,17.88
2023-05-20T00:21:15.657Z,17.88
2023-05-20T00:21:47.190Z,17.88
2023-05-20T00:22:18.640Z,17.87
2023-05-20T00:22:50.093Z,17.87
2023-05-20T00:23:21.548Z,17.86
2023-05-20T00:23:53.020Z,17.87
2023-05-20T00:24:24.454Z,17.87
2023-05-20T00:24:55.890Z,17.87
2023-05-20T00:25:27.334Z,17.87
2023-05-20T00:26:00.693Z,17.86
2023-05-20T00:26:32.488Z,17.86
2023-05-20T00:27:03.929Z,17.86
2023-05-20T00:27:35.372Z,17.85
2023-05-20T00:28:06.830Z,17.85
2023-05-20T00:28:38.299Z,17.86
2023-05-20T00:29:09.729Z,17.86
2023-05-20T00:29:41.164Z,17.85
2023-05-20T00:30:12.660Z,17.85
2023-05-20T00:30:44.115Z,17.85
2023-05-20T00:31:15.560Z,17.86
2023-05-20T00:31:47.009Z,17.85
2023-05-20T00:32:18.580Z,17.85
2023-05-20T00:32:50.160Z,17.83
2023-05-20T00:33:21.653Z,17.85
2023-05-20T00:33:53.183Z,17.86
2023-05-20T00:34:24.635Z,17.84
2023-05-20T00:34:56.069Z,17.84
2023-05-20T00:35:27.509Z,17.85
2023-05-20T00:35:58.949Z,17.84
2023-05-20T00:36:30.397Z,17.83
2023-05-20T00:37:01.873Z,17.83
2023-05-20T00:37:33.332Z,17.82
2023-05-20T00:38:04.783Z,17.82
2023-05-20T00:38:36.420Z,17.82
2023-05-20T00:39:07.947Z,17.83
2023-05-20T00:39:39.394Z,17.83
2023-05-20T00:40:11.330Z,17.82
2023-05-20T00:40:43.869Z,17.82
2023-05-20T00:41:15.328Z,17.82
2023-05-20T00:41:46.770Z,17.81
2023-05-20T00:42:18.205Z,17.82
2023-05-20T00:42:49.652Z,17.82
2023-05-20T00:43:21.102Z,17.80
2023-05-20T00:43:52.562Z,17.81
2023-05-20T00:44:24.064Z,17.80
2023-05-20T00:44:55.499Z,17.80
2023-05-20T00:45:27.004Z,17.80
2023-05-20T00:45:58.560Z,17.80
2023-05-20T00:46:30.153Z,17.80
2023-05-20T00:47:01.697Z,17.80
2023-05-20T00:47:33.170Z,17.80
2023-05-20T00:48:04.662Z,17.80
2023-05-20T00:48:36.129Z,17.79
2023-05-20T00:49:07.616Z,17.78
2023-05-20T00:49:39.082Z,17.78
2023-05-20T00:50:10.564Z,17.77
2023-05-20T00:50:42.127Z,17.77
2023-05-20T00:51:13.571Z,17.77
2023-05-20T00:51:45.031Z,17.78
2023-05-20T00:52:16.476Z,17.77
2023-05-20T00:52:47.922Z,17.77
2023-05-20T00:53:19.368Z,17.77
2023-05-20T00:53:50.810Z,17.77
2023-05-20T00:54:22.275Z,17.77
2023-05-20T00:54:53.724Z,17.78
2023-05-20T00:55:25.193Z,17.76
2023-05-20T00:55:56.627Z,17.75
2023-05-20T00:56:28.064Z,17.77
2023-05-20T00:56:59.507Z,17.76
2023-05-20T00:57:30.948Z,17.77
2023-05-20T00:58:02.394Z,17.76
2023-05-20T00:58:33.838Z,17.76
2023-05-20T00:59:05.275Z,17.75
2023-05-20T00:59:36.758Z,17.76
2023-05-20T01:00:08.233Z,17.74
2023-05-20T01:00:39.731Z,17.75
2023-05-20T01:01:11.202Z,17.75
2023-05-20T01:01:42.706Z,17.75
2023-05-20T01:02:14.310Z,17.75
2023-05-20T01:02:45.929Z,17.75
2023-05-20T01:03:17.502Z,17.75
2023-05-20T01:03:49.182Z,17.75
2023-05-20T01:04:20.748Z,17.74
2023-05-20T01:04:52.206Z,17.75
2023-05-20T01:05:23.642Z,17.74
2023-05-20T01:05:55.104Z,17.74
2023-05-20T01:06:26.552Z,17.74
2023-05-20T01:06:57.992Z,17.75
2023-05-20T01:07:29.587Z,17.74
2023-05-20T01:08:01.027Z,17.74
2023-05-20T01:08:32.464Z,17.73
2023-05-20T01:09:03.907Z,17.73
2023-05-20T01:09:35.353Z,17.73
2023-05-20T01:10:06.855Z,17.74
2023-05-20T01:10:38.327Z,17.73
2023-05-20T01:11:09.795Z,17.73
2023-05-20T01:11:41.240Z,17.72
2023-05-20T01:12:12.698Z,17.72
2023-05-20T01:12:44.154Z,17.72
2023-05-20T01:13:15.603Z,17.72
2023-05-20T01:13:47.039Z,17.72
2023-05-20T01:14:18.482Z,17.73
2023-05-20T01:14:49.927Z,17.72
2023-05-20T01:15:21.387Z,17.72
2023-05-20T01:15:52.872Z,17.71
2023-05-20T01:16:24.425Z,17.72
2023-05-20T01:16:55.939Z,17.72
2023-05-20T01:17:27.441Z,17.71
2023-05-20T01:17:58.893Z,17.71
2023-05-20T01:18:30.340Z,17.70
2023-05-20T01:19:01.835Z,17.70
2023-05-20T01:19:33.287Z,17.70
2023-05-20T01:20:04.731Z,17.71
2023-05-20T01:20:36.207Z,17.71
2023-05-20T01:21:07.662Z,17.70
2023-05-20T01:21:39.104Z,17.70
2023-05-20T01:22:10.534Z,17.70
2023-05-20T01:22:41.970Z,17.70
2023-05-20T01:23:13.407Z,17.70
2023-05-20T01:23:44.846Z,17.70
2023-05-20T01:24:16.280Z,17.70
2023-05-20T01:24:47.720Z,17.70
2023-05-20T01:25:19.165Z,17.69
2023-05-20T01:25:50.660Z,17.70
2023-05-20T01:26:22.088Z,17.70
2023-05-20T01:26:53.518Z,17.68
2023-05-20T01:27:24.971Z,17.68
2023-05-20T01:27:56.429Z,17.68
2023-05-20T01:28:27.874Z,17.68
2023-05-20T01:28:59.309Z,17.68
2023-05-20T01:29:30.746Z,17.69
2023-05-20T01:30:02.222Z,17.69
2023-05-20T01:30:33.720Z,17.68
2023-05-20T01:31:05.211Z,17.68
2023-05-20T01:31:36.743Z,17.67
2023-05-20T01:32:08.259Z,17.68
2023-05-20T01:32:39.714Z,17.68
2023-05-20T01:33:11.215Z,17.67
2023-05-20T01:33:42.722Z,17.67
2023-05-20T01:34:14.171Z,17.67
2023-05-20T01:34:45.625Z,17.68
2023-05-20T01:35:17.062Z,17.67
2023-05-20T01:35:48.498Z,17.67
2023-05-20T01:36:20.020Z,17.66
2023-05-20T01:36:51.500Z,17.67
2023-05-20T01:37:22.938Z,17.68
2023-05-20T01:37:54.375Z,17.67
2023-05-20T01:38:25.836Z,17.67
2023-05-20T01:38:57.271Z,17.67
2023-05-20T01:39:28.770Z,17.66
2023-05-20T01:40:00.241Z,17.66
2023-05-20T01:40:31.739Z,17.66
2023-05-20T01:41:03.172Z,17.66
2023-05-20T01:41:34.646Z,17.66
2023-05-20T01:42:06.086Z,17.66
2023-05-20T01:42:37.542Z,17.65
2023-05-20T01:43:08.995Z,17.66
2023-05-20T01:43:40.443Z,17.66
2023-05-20T01:44:11.900Z,17.65
2023-05-20T01:44:43.345Z,17.65
2023-05-20T01:45:14.793Z,17.63
2023-05-20T01:45:46.235Z,17.66
2023-05-20T01:46:17.738Z,17.64
2023-05-20T01:46:49.291Z,17.63
2023-05-20T01:47:20.728Z,17.63
2023-05-20T01:47:52.228Z,17.63
2023-05-20T01:48:23.679Z,17.63
2023-05-20T01:48:55.126Z,17.63
2023-05-20T01:49:26.594Z,17.62
2023-05-20T01:49:58.045Z,17.63
2023-05-20T01:50:29.511Z,17.62
2023-05-20T01:51:00.956Z,17.62
2023-05-20T01:51:32.403Z,17.62
2023-05-20T01:52:03.852Z,17.62
2023-05-20T01:52:35.296Z,17.63
2023-05-20T01:53:06.730Z,17.62
2023-05-20T01:53:38.163Z,17.62
2023-05-20T01:54:09.590Z,17.61
2023-05-20T01:54:41.051Z,17.62
2023-05-20T01:55:12.499Z,17.61
2023-05-20T01:55:43.973Z,17.60
2023-05-20T01:56:15.405Z,17.62
2023-05-20T01:56:46.855Z,17.61
2023-05-20T01:57:18.325Z,17.62
2023-05-20T01:57:49.765Z,17.61
2023-05-20T01:58:21.196Z,17.59
2023-05-20T01:58:52.641Z,17.60
2023-05-20T01:59:24.101Z,17.60
2023-05-20T01:59:55.570Z,17.60
2023-05-20T02:00:27.018Z,17.60
2023-05-20T02:00:58.495Z,17.59
2023-05-20T02:01:30.015Z,17.60
2023-05-20T02:02:01.722Z,17.61
2023-05-20T02:02:33.404Z,17.58
2023-05-20T02:03:04.928Z,17.59
2023-05-20T02:03:36.410Z,17.59
2023-05-20T02:04:07.862Z,17.58
2023-05-20T02:04:39.295Z,17.59
2023-05-20T02:05:10.747Z,17.59
2023-05-20T02:05:42.239Z,17.58
2023-05-20T02:06:13.760Z,17.59
2023-05-20T02:06:45.210Z,17.58
2023-05-20T02:07:16.698Z,17.59
2023-05-20T02:07:48.191Z,17.59
2023-05-20T02:08:19.634Z,17.59
2023-05-20T02:08:51.141Z,17.59
2023-05-20T02:09:22.571Z,17.58
2023-05-20T02:09:54.015Z,17.59
2023-05-20T02:10:25.469Z,17.58
2023-05-20T02:10:56.954Z,17.58
2023-05-20T02:11:29.154Z,17.59
2023-05-20T02:12:00.709Z,17.58
2023-05-20T02:12:32.156Z,17.58
2023-05-20T02:13:03.626Z,17.58
2023-05-20T02:13:35.063Z,17.58
2023-05-20T02:14:06.520Z,17.58
2023-05-20T02:14:37.977Z,17.57
2023-05-20T02:15:09.457Z,17.56
2023-05-20T02:15:40.896Z,17.57
2023-05-20T02:16:12.377Z,17.57
2023-05-20T02:16:43.830Z,17.57
2023-05-20T02:17:15.329Z,17.57
2023-05-20T02:17:46.876Z,17.57
2023-05-20T02:18:18.367Z,17.55
2023-05-20T02:18:49.867Z,17.57
2023-05-20T02:19:21.390Z,17.57
2023-05-20T02:19:52.862Z,17.57
2023-05-20T02:20:24.302Z,17.55
2023-05-20T02:20:55.734Z,17.55
2023-05-20T02:21:27.185Z,17.56
2023-05-20T02:21:58.630Z,17.55
2023-05-20T02:22:30.070Z,17.56
2023-05-20T02:23:01.517Z,17.56
2023-05-20T02:23:33.034Z,17.55
2023-05-20T02:24:04.485Z,17.56
2023-05-20T02:24:35.929Z,17.55
2023-05-20T02:25:07.375Z,17.53
2023-05-20T02:25:38.833Z,17.55
2023-05-20T02:26:10.285Z,17.54
2023-05-20T02:26:41.736Z,17.55
2023-05-20T02:27:13.250Z,17.54
2023-05-20T02:27:44.708Z,17.54
2023-05-20T02:28:16.163Z,17.54
2023-05-20T02:28:47.601Z,17.55
2023-05-20T02:29:19.036Z,17.55
2023-05-20T02:29:50.470Z,17.54
2023-05-20T02:30:21.913Z,17.54
2023-05-20T02:30:53.356Z,17.54
2023-05-20T02:31:24.816Z,17.54
2023-05-20T02:31:56.272Z,17.54
2023-05-20T02:32:27.795Z,17.54
2023-05-20T02:32:59.263Z,17.54
2023-05-20T02:33:30.749Z,17.54
2023-05-20T02:34:02.389Z,17.53
2023-05-20T02:34:33.929Z,17.53
2023-05-20T02:35:05.421Z,17.53
2023-05-20T02:35:37.029Z,17.52
2023-05-20T02:36:08.531Z,17.53
2023-05-20T02:36:40.043Z,17.52
2023-05-20T02:37:11.487Z,17.52
2023-05-20T02:37:42.925Z,17.52
2023-05-20T02:38:14.362Z,17.52
2023-05-20T02:38:45.810Z,17.51
2023-05-20T02:39:17.265Z,17.52
2023-05-20T02:39:48.709Z,17.53
2023-05-20T02:40:20.172Z,17.52
2023-05-20T02:40:51.613Z,17.52
2023-05-20T02:41:23.048Z,17.52
2023-05-20T02:41:54.543Z,17.50
2023-05-20T02:42:26.015Z,17.50
2023-05-20T02:42:57.453Z,17.51
2023-05-20T02:43:28.911Z,17.51
2023-05-20T02:44:00.354Z,17.51
2023-05-20T02:44:31.818Z,17.52
2023-05-20T02:45:03.305Z,17.51
2023-05-20T02:45:34.866Z,17.50
2023-05-20T02:46:06.375Z,17.50
2023-05-20T02:46:38.067Z,17.51
2023-05-20T02:47:09.598Z,17.50
2023-05-20T02:47:41.194Z,17.49
2023-05-20T02:48:12.671Z,17.49
2023-05-20T02:48:44.138Z,17.49
2023-05-20T02:49:15.591Z,17.50
2023-05-20T02:49:47.025Z,17.50
2023-05-20T02:50:18.501Z,17.50
2023-05-20T02:50:50.076Z,17.49
2023-05-20T02:51:21.531Z,17.48
2023-05-20T02:51:52.981Z,17.49
2023-05-20T02:52:24.439Z,17.48
2023-05-20T02:52:55.880Z,17.48
2023-05-20T02:53:27.323Z,17.49
2023-05-20T02:53:58.764Z,17.49
2023-05-20T02:54:30.199Z,17.47
2023-05-20T02:55:01.651Z,17.47
2023-05-20T02:55:33.238Z,17.47
2023-05-20T02:56:04.899Z,17.47
2023-05-20T02:56:36.341Z,17.48
2023-05-20T02:57:07.793Z,17.47
2023-05-20T02:57:39.301Z,17.47
2023-05-20T02:58:10.777Z,17.47
2023-05-20T02:58:42.211Z,17.46
2023-05-20T02:59:13.673Z,17.47
2023-05-20T02:59:45.112Z,17.47
2023-05-20T03:00:16.572Z,17.46
2023-05-20T03:00:48.002Z,17.47
2023-05-20T03:01:19.465Z,17.46
2023-05-20T03:01:50.989Z,17.46
2023-05-20T03:02:22.525Z,17.46
2023-05-20T03:02:54.021Z,17.46
2023-05-20T03:03:25.507Z,17.45
2023-05-20T03:03:57.007Z,17.45
2023-05-20T03:04:28.528Z,17.43
2023-05-20T03:05:00.028Z,17.44
2023-05-20T03:05:31.634Z,17.45
2023-05-20T03:06:03.298Z,17.45
2023-05-20T03:06:34.739Z,17.44
2023-05-20T03:07:06.181Z,17.43
2023-05-20T03:07:37.626Z,17.45
2023-05-20T03:08:09.067Z,17.44
2023-05-20T03:08:40.501Z,17.44
2023-05-20T03:09:11.956Z,17.43
2023-05-20T03:09:43.423Z,17.43
2023-05-20T03:10:14.868Z,17.43
2023-05-20T03:10:46.370Z,17.44
2023-05-20T03:11:17.802Z,17.43
2023-05-20T03:11:49.237Z,17.44
2023-05-20T03:12:20.665Z,17.43
2023-05-20T03:12:52.106Z,17.43
2023-05-20T03:13:23.567Z,17.43
2023-05-20T03:13:55.005Z,17.44
2023-05-20T03:14:26.444Z,17.44
2023-05-20T03:14:57.882Z,17.43
2023-05-20T03:15:29.341Z,17.43
2023-05-20T03:16:00.880Z,17.42
2023-05-20T03:16:32.444Z,17.43
2023-05-20T03:17:03.937Z,17.43
2023-05-20T03:17:35.428Z,17.43
2023-05-20T03:18:06.982Z,17.42
2023-05-20T03:18:38.451Z,17.43
2023-05-20T03:19:09.951Z,17.42
2023-05-20T03:19:41.483Z,17.43
2023-05-20T03:20:12.983Z,17.42
2023-05-20T03:20:44.458Z,17.41
2023-05-20T03:21:15.903Z,17.41
2023-05-20T03:21:47.358Z,17.41
2023-05-20T03:22:18.793Z,17.41
2023-05-20T03:22:50.225Z,17.41
2023-05-20T03:23:21.686Z,17.41
2023-05-20T03:23:53.129Z,17.41
2023-05-20T03:24:24.564Z,17.41
2023-05-20T03:24:55.997Z,17.40
2023-05-20T03:25:27.443Z,17.41
2023-05-20T03:25:58.912Z,17.41
2023-05-20T03:26:30.350Z,17.40
2023-05-20T03:27:01.796Z,17.40
2023-05-20T03:27:33.233Z,17.40
2023-05-20T03:28:04.672Z,17.41
2023-05-20T03:28:36.127Z,17.40
2023-05-20T03:29:07.572Z,17.40
2023-05-20T03:29:39.015Z,17.40
2023-05-20T03:30:10.486Z,17.39
2023-05-20T03:30:41.931Z,17.39
2023-05-20T03:31:13.505Z,17.40
2023-05-20T03:31:45.074Z,17.40
2023-05-20T03:32:16.699Z,17.40
2023-05-20T03:32:48.300Z,17.39
2023-05-20T03:33:19.778Z,17.39
2023-05-20T03:33:51.235Z,17.39
2023-05-20T03:34:22.679Z,17.39
2023-05-20T03:34:54.108Z,17.39
2023-05-20T03:35:25.554Z,17.40
2023-05-20T03:35:57.010Z,17.39
2023-05-20T03:36:28.478Z,17.40
2023-05-20T03:36:59.922Z,17.37
2023-05-20T03:37:31.369Z,17.38
2023-05-20T03:38:02.814Z,17.39
2023-05-20T03:38:34.266Z,17.38
2023-05-20T03:39:05.701Z,17.39
2023-05-20T03:39:37.144Z,17.39
2023-05-20T03:40:08.595Z,17.39
2023-05-20T03:40:40.035Z,17.38
2023-05-20T03:41:11.474Z,17.37
2023-05-20T03:41:42.952Z,17.38
2023-05-20T03:42:14.402Z,17.38
2023-05-20T03:42:48.674Z,17.38
2023-05-20T03:43:20.110Z,17.39
2023-05-20T03:43:51.551Z,17.38
2023-05-20T03:44:22.986Z,17.37
2023-05-20T03:44:54.430Z,17.38
2023-05-20T03:45:25.875Z,17.38
2023-05-20T03:45:57.314Z,17.37
2023-05-20T03:46:28.807Z,17.37
2023-05-20T03:47:00.371Z,17.37
2023-05-20T03:47:31.974Z,17.37
2023-05-20T03:48:03.586Z,17.37
2023-05-20T03:48:35.271Z,17.37
2023-05-20T03:49:06.710Z,17.36
2023-05-20T03:49:38.147Z,17.36
2023-05-20T03:50:09.606Z,17.35
2023-05-20T03:50:41.048Z,17.36
2023-05-20T03:51:12.493Z,17.35
2023-05-20T03:51:43.941Z,17.36
2023-05-20T03:52:15.390Z,17.36
2023-05-20T03:52:46.884Z,17.36
2023-05-20T03:53:18.338Z,17.36
2023-05-20T03:53:49.771Z,17.36
2023-05-20T03:54:21.205Z,17.36
2023-05-20T03:54:52.646Z,17.34
2023-05-20T03:55:24.101Z,17.34
2023-05-20T03:55:55.593Z,17.35
2023-05-20T03:56:27.039Z,17.35
2023-05-20T03:56:58.514Z,17.34
2023-05-20T03:57:29.975Z,17.34
2023-05-20T03:58:01.492Z,17.34
2023-05-20T03:58:32.942Z,17.34
2023-05-20T03:59:04.378Z,17.33
2023-05-20T03:59:35.814Z,17.33
2023-05-20T04:00:07.254Z,17.34
2023-05-20T04:00:38.734Z,17.33
2023-05-20T04:01:10.193Z,17.33
2023-05-20T04:01:41.674Z,17.33
2023-05-20T04:02:13.243Z,17.34
2023-05-20T04:02:44.764Z,17.34
2023-05-20T04:03:16.305Z,17.33
2023-05-20T04:03:48.062Z,17.33
2023-05-20T04:04:19.666Z,17.33
2023-05-20T04:04:51.144Z,17.33
2023-05-20T04:05:22.584Z,17.33
2023-05-20T04:05:54.039Z,17.33
2023-05-20T04:06:25.488Z,17.32
2023-05-20T04:06:56.942Z,17.33
2023-05-20T04:07:28.406Z,17.33
2023-05-20T04:07:59.871Z,17.32
2023-05-20T04:08:31.340Z,17.32
2023-05-20T04:09:02.779Z,17.32
2023-05-20T04:09:34.212Z,17.32
2023-05-20T04:10:05.653Z,17.32
2023-05-20T04:10:37.096Z,17.32
2023-05-20T04:11:08.649Z,17.33
2023-05-20T04:11:40.098Z,17.33
2023-05-20T04:12:11.561Z,17.32
2023-05-20T04:12:43.009Z,17.33
2023-05-20T04:13:14.486Z,17.32
2023-05-20T04:13:45.941Z,17.31
2023-05-20T04:14:17.390Z,17.31
2023-05-20T04:14:48.831Z,17.31
2023-05-20T04:15:20.270Z,17.32
2023-05-20T04:15:51.708Z,17.30
2023-05-20T04:16:23.179Z,17.32
2023-05-20T04:16:54.660Z,17.31
2023-05-20T04:17:26.240Z,17.31
2023-05-20T04:17:57.951Z,17.31
2023-05-20T04:18:29.600Z,17.31
2023-05-20T04:19:01.132Z,17.30
2023-05-20T04:19:32.588Z,17.31
2023-05-20T04:20:04.090Z,17.30
2023-05-20T04:20:35.541Z,17.30
2023-05-20T04:21:06.993Z,17.31
2023-05-20T04:21:38.438Z,17.30
2023-05-20T04:22:09.876Z,17.30
2023-05-20T04:22:41.346Z,17.31
2023-05-20T04:23:12.797Z,17.30
2023-05-20T04:23:44.239Z,17.30
2023-05-20T04:24:15.680Z,17.30
2023-05-20T04:24:47.189Z,17.30
2023-05-20T04:25:18.674Z,17.30
2023-05-20T04:25:50.142Z,17.30
2023-05-20T04:26:21.592Z,17.30
2023-05-20T04:26:53.040Z,17.29
2023-05-20T04:27:24.480Z,17.30
2023-05-20T04:27:55.922Z,17.30
2023-05-20T04:28:27.386Z,17.29
2023-05-20T04:28:58.828Z,17.29
2023-05-20T04:29:30.267Z,17.29
2023-05-20T04:30:01.719Z,17.30
2023-05-20T04:30:33.187Z,17.29
2023-05-20T04:31:04.676Z,17.29
2023-05-20T04:31:36.175Z,17.29
2023-05-20T04:32:07.755Z,17.30
2023-05-20T04:32:39.326Z,17.30
2023-05-20T04:33:10.866Z,17.31
2023-05-20T04:33:42.349Z,17.30
2023-05-20T04:34:13.801Z,17.30
2023-05-20T04:34:45.238Z,17.30
2023-05-20T04:35:16.721Z,17.30
2023-05-20T04:35:48.180Z,17.30
2023-05-20T04:36:19.613Z,17.30
2023-05-20T04:36:51.050Z,17.31
2023-05-20T04:37:22.499Z,17.31
2023-05-20T04:37:53.947Z,17.32
2023-05-20T04:38:26.473Z,17.32
2023-05-20T04:38:59.002Z,17.32
2023-05-20T04:39:30.483Z,17.32
2023-05-20T04:40:01.925Z,17.32
2023-05-20T04:40:33.409Z,17.33
2023-05-20T04:41:04.850Z,17.32
2023-05-20T04:41:36.288Z,17.32
2023-05-20T04:42:07.728Z,17.33
2023-05-20T04:42:39.166Z,17.33
2023-05-20T04:43:10.606Z,17.33
2023-05-20T04:43:42.054Z,17.33
2023-05-20T04:44:13.500Z,17.34
2023-05-20T04:44:44.934Z,17.32
2023-05-20T04:45:16.382Z,17.33
2023-05-20T04:45:47.911Z,17.34
2023-05-20T04:46:19.357Z,17.34
2023-05-20T04:46:50.843Z,17.34
2023-05-20T04:47:22.289Z,17.33
2023-05-20T04:47:53.759Z,17.34
2023-05-20T04:48:25.251Z,17.34
2023-05-20T04:48:56.709Z,17.33
2023-05-20T04:49:28.147Z,17.36
2023-05-20T04:49:59.584Z,17.34
2023-05-20T04:50:31.024Z,17.36
2023-05-20T04:51:02.535Z,17.34
2023-05-20T04:51:34.017Z,17.36
2023-05-20T04:52:05.467Z,17.35
2023-05-20T04:52:36.912Z,17.35
2023-05-20T04:53:08.359Z,17.36
2023-05-20T04:53:39.804Z,17.35
2023-05-20T04:54:11.249Z,17.35
2023-05-20T04:54:42.681Z,17.36
2023-05-20T04:55:14.129Z,17.34
2023-05-20T04:55:45.603Z,17.35
2023-05-20T04:56:17.107Z,17.34
2023-05-20T04:56:48.563Z,17.34
2023-05-20T04:57:19.994Z,17.34
2023-05-20T04:57:51.439Z,17.35
2023-05-20T04:58:22.909Z,17.34
2023-05-20T04:58:54.384Z,17.34
2023-05-20T04:59:25.860Z,17.33
2023-05-20T04:59:57.310Z,17.36
2023-05-20T05:00:28.755Z,17.35
2023-05-20T05:01:00.196Z,17.34
2023-05-20T05:01:31.720Z,17.34
2023-05-20T05:02:03.185Z,17.35
2023-05-20T05:02:34.659Z,17.36
2023-05-20T05:03:06.172Z,17.34
2023-05-20T05:03:37.631Z,17.35
2023-05-20T05:04:09.157Z,17.35
2023-05-20T05:04:40.748Z,17.37
2023-05-20T05:05:12.257Z,17.36
2023-05-20T05:05:43.707Z,17.35
2023-05-20T05:06:15.149Z,17.36
2023-05-20T05:06:46.637Z,17.36
2023-05-20T05:07:18.079Z,17.36
2023-05-20T05:07:49.511Z,17.36
2023-05-20T05:08:20.950Z,17.35
2023-05-20T05:08:52.383Z,17.36
2023-05-20T05:09:23.823Z,17.37
2023-05-20T05:09:55.387Z,17.37
2023-05-20T05:10:26.828Z,17.36
2023-05-20T05:10:58.286Z,17.36
2023-05-20T05:11:29.759Z,17.36
2023-05-20T05:12:01.244Z,17.35
2023-05-20T05:12:32.749Z,17.37
2023-05-20T05:13:04.187Z,17.36
2023-05-20T05:13:35.634Z,17.35
2023-05-20T05:14:07.075Z,17.36
2023-05-20T05:14:38.514Z,17.36
2023-05-20T05:15:09.984Z,17.36
2023-05-20T05:15:41.433Z,17.35
2023-05-20T05:16:13.051Z,17.35
2023-05-20T05:16:44.525Z,17.36
2023-05-20T05:17:16.012Z,17.36
2023-05-20T05:17:47.469Z,17.36
2023-05-20T05:18:18.919Z,17.36
2023-05-20T05:18:50.416Z,17.36
2023-05-20T05:19:21.983Z,17.37
2023-05-20T05:19:53.522Z,17.37
2023-05-20T05:20:24.989Z,17.37
2023-05-20T05:20:56.434Z,17.37
2023-05-20T05:21:27.878Z,17.37
2023-05-20T05:21:59.325Z,17.37
2023-05-20T05:22:30.797Z,17.39
2023-05-20T05:23:02.231Z,17.38
2023-05-20T05:23:33.669Z,17.38
2023-05-20T05:24:05.109Z,17.38
2023-05-20T05:24:36.553Z,17.38
2023-05-20T05:25:07.995Z,17.38
2023-05-20T05:25:39.447Z,17.39
2023-05-20T05:26:11.035Z,17.38
2023-05-20T05:26:42.552Z,17.39
2023-05-20T05:27:13.992Z,17.38
2023-05-20T05:27:45.476Z,17.38
2023-05-20T05:28:16.942Z,17.39
2023-05-20T05:28:48.394Z,17.39
2023-05-20T05:29:19.835Z,17.39
2023-05-20T05:29:51.283Z,17.38
2023-05-20T05:30:22.727Z,17.38
2023-05-20T05:30:54.163Z,17.38
2023-05-20T05:31:25.609Z,17.38
2023-05-20T05:31:57.085Z,17.38
2023-05-20T05:32:28.664Z,17.39
2023-05-20T05:33:00.248Z,17.38
2023-05-20T05:33:31.782Z,17.38
2023-05-20T05:34:03.242Z,17.38
2023-05-20T05:34:34.684Z,17.38
2023-05-20T05:35:08.087Z,17.38
2023-05-20T05:35:39.892Z,17.38
2023-05-20T05:36:11.340Z,17.38
2023-05-20T05:36:42.775Z,17.39
2023-05-20T05:37:14.221Z,17.38
2023-05-20T05:37:45.700Z,17.38
2023-05-20T05:38:17.168Z,17.38
2023-05-20T05:38:48.603Z,17.39
2023-05-20T05:39:20.034Z,17.39
2023-05-20T05:39:51.472Z,17.40
2023-05-20T05:40:22.945Z,17.39
2023-05-20T05:40:54.432Z,17.41
2023-05-20T05:41:25.927Z,17.40
2023-05-20T05:41:57.396Z,17.41
2023-05-20T05:42:28.862Z,17.41
2023-05-20T05:43:00.305Z,17.41
2023-05-20T05:43:31.790Z,17.42
2023-05-20T05:44:03.235Z,17.42
2023-05-20T05:44:34.676Z,17.42
2023-05-20T05:45:06.141Z,17.42
2023-05-20T05:45:37.615Z,17.42
2023-05-20T05:46:09.129Z,17.42
2023-05-20T05:46:40.625Z,17.41
2023-05-20T05:47:12.187Z,17.41
2023-05-20T05:47:43.704Z,17.41
2023-05-20T05:48:15.189Z,17.42
2023-05-20T05:48:46.641Z,17.42
2023-05-20T05:49:18.078Z,17.42
2023-05-20T05:49:49.531Z,17.42
2023-05-20T05:50:20.975Z,17.42
2023-05-20T05:50:52.426Z,17.43
2023-05-20T05:51:23.903Z,17.43
2023-05-20T05:51:55.348Z,17.43
2023-05-20T05:52:26.800Z,17.42
2023-05-20T05:52:58.239Z,17.43
2023-05-20T05:53:29.674Z,17.44
2023-05-20T05:54:01.179Z,17.43
2023-05-20T05:54:32.616Z,17.45
2023-05-20T05:55:04.052Z,17.43
2023-05-20T05:55:35.630Z,17.45
2023-05-20T05:56:07.177Z,17.45
2023-05-20T05:56:38.615Z,17.44
2023-05-20T05:57:10.062Z,17.45
2023-05-20T05:57:41.509Z,17.45
2023-05-20T05:58:12.952Z,17.45
2023-05-20T05:58:44.378Z,17.45
2023-05-20T05:59:15.863Z,17.43
2023-05-20T05:59:47.317Z,17.44
2023-05-20T06:00:18.773Z,17.45
2023-05-20T06:00:50.295Z,17.45
2023-05-20T06:01:21.792Z,17.46
2023-05-20T06:01:53.328Z,17.46
2023-05-20T06:02:24.896Z,17.46
2023-05-20T06:02:56.502Z,17.46
2023-05-20T06:03:28.111Z,17.46
2023-05-20T06:03:59.677Z,17.46
2023-05-20T06:04:31.293Z,17.46
2023-05-20T06:05:02.763Z,17.46
2023-05-20T06:05:34.492Z,17.46
2023-05-20T06:06:06.260Z,17.46
2023-05-20T06:06:37.707Z,17.46
2023-05-20T06:07:09.139Z,17.46
2023-05-20T06:07:40.633Z,17.45
2023-05-20T06:08:12.067Z,17.47
2023-05-20T06:08:43.510Z,17.46
2023-05-20T06:09:14.965Z,17.45
2023-05-20T06:09:46.451Z,17.47
2023-05-20T06:10:17.899Z,17.47
2023-05-20T06:10:49.357Z,17.47
2023-05-20T06:11:20.818Z,17.47
2023-05-20T06:11:52.268Z,17.47
2023-05-20T06:12:23.716Z,17.47
2023-05-20T06:12:55.282Z,17.47
2023-05-20T06:13:26.720Z,17.47
2023-05-20T06:13:58.154Z,17.48
2023-05-20T06:14:29.593Z,17.47
2023-05-20T06:15:01.080Z,17.48
2023-05-20T06:15:32.814Z,17.47
2023-05-20T06:16:04.456Z,17.47
2023-05-20T06:16:35.904Z,17.48
2023-05-20T06:17:07.548Z,17.48
2023-05-20T06:17:39.170Z,17.49
2023-05-20T06:18:10.863Z,17.48
2023-05-20T06:18:42.405Z,17.48
2023-05-20T06:19:13.938Z,17.48
2023-05-20T06:19:45.397Z,17.48
2023-05-20T06:20:16.846Z,17.48
2023-05-20T06:20:48.315Z,17.48
2023-05-20T06:21:19.744Z,17.48
2023-05-20T06:21:51.188Z,17.49
2023-05-20T06:22:22.636Z,17.48
2023-05-20T06:22:54.086Z,17.48
2023-05-20T06:23:25.557Z,17.48
2023-05-20T06:23:56.993Z,17.48
2023-05-20T06:24:28.445Z,17.49
2023-05-20T06:24:59.896Z,17.49
2023-05-20T06:25:31.420Z,17.49
2023-05-20T06:26:02.994Z,17.49
2023-05-20T06:26:34.451Z,17.49
2023-05-20T06:27:05.893Z,17.49
2023-05-20T06:27:37.366Z,17.49
2023-05-20T06:28:08.823Z,17.49
2023-05-20T06:28:40.298Z,17.51
2023-05-20T06:29:11.746Z,17.51
2023-05-20T06:29:43.887Z,17.51
2023-05-20T06:30:15.472Z,17.51
2023-05-20T06:30:46.938Z,17.52
2023-05-20T06:31:18.507Z,17.52
2023-05-20T06:31:49.952Z,17.53
2023-05-20T06:32:21.438Z,17.52
2023-05-20T06:32:52.933Z,17.52
2023-05-20T06:33:24.426Z,17.53
2023-05-20T06:33:55.860Z,17.52
2023-05-20T06:34:27.305Z,17.53
2023-05-20T06:34:58.746Z,17.53
2023-05-20T06:35:30.196Z,17.53
2023-05-20T06:36:01.718Z,17.54
2023-05-20T06:36:33.824Z,17.53
2023-05-20T06:37:05.350Z,17.54
2023-05-20T06:37:36.845Z,17.54
2023-05-20T06:38:08.360Z,17.53
2023-05-20T06:38:39.849Z,17.53
2023-05-20T06:39:11.296Z,17.53
2023-05-20T06:39:42.741Z,17.54
2023-05-20T06:40:14.196Z,17.54
2023-05-20T06:40:45.650Z,17.54
2023-05-20T06:41:17.105Z,17.54
2023-05-20T06:41:48.540Z,17.54
2023-05-20T06:42:19.974Z,17.55
2023-05-20T06:42:51.455Z,17.55
2023-05-20T06:43:22.924Z,17.55
2023-05-20T06:43:54.368Z,17.56
2023-05-20T06:44:25.808Z,17.56
2023-05-20T06:44:57.254Z,17.56
2023-05-20T06:45:28.701Z,17.56